sensor_id;sensor_type;location;lat;lon;timestamp;pressure;altitude;pressure_sealevel;temperature;humidity
28626;BME280;18905;42.668;23.364;2022-08-19T00:00:17;94797.06;;;25.92;76.37
28626;BME280;18905;42.668;23.364;2022-08-19T00:02:43;94795.94;;;25.86;75.92
28626;BME280;18905;42.668;23.364;2022-08-19T00:05:10;94827.13;;;26.13;75.75
28626;BME280;18905;42.668;23.364;2022-08-19T00:07:36;94774.16;;;25.69;78.71
28626;BME280;18905;42.668;23.364;2022-08-19T00:10:07;94769.69;;;25.52;78.34
28626;BME280;18905;42.668;23.364;2022-08-19T00:12:33;94828.84;;;26.04;77.20
28626;BME280;18905;42.668;23.364;2022-08-19T00:14:58;94769.69;;;25.75;76.58
28626;BME280;18905;42.668;23.364;2022-08-19T00:17:24;94717.16;;;25.29;77.02
28626;BME280;18905;42.668;23.364;2022-08-19T00:19:49;94748.78;;;24.98;81.29
28626;BME280;18905;42.668;23.364;2022-08-19T00:22:15;94813.53;;;25.50;82.53
28626;BME280;18905;42.668;23.364;2022-08-19T00:24:42;94826.19;;;25.74;82.70
28626;BME280;18905;42.668;23.364;2022-08-19T00:27:08;94787.06;;;25.52;79.79
28626;BME280;18905;42.668;23.364;2022-08-19T00:29:34;94769.38;;;25.20;81.26
28626;BME280;18905;42.668;23.364;2022-08-19T00:31:59;94793.34;;;25.00;84.45
28626;BME280;18905;42.668;23.364;2022-08-19T00:34:26;94797.47;;;25.15;83.69
28626;BME280;18905;42.668;23.364;2022-08-19T00:36:55;94820.59;;;25.24;84.96
28626;BME280;18905;42.668;23.364;2022-08-19T00:39:21;94834.72;;;25.60;82.69
28626;BME280;18905;42.668;23.364;2022-08-19T00:41:48;94817.56;;;25.19;83.18
28626;BME280;18905;42.668;23.364;2022-08-19T00:44:22;94804.88;;;25.21;81.92
28626;BME280;18905;42.668;23.364;2022-08-19T00:46:49;94765.75;;;25.00;81.93
28626;BME280;18905;42.668;23.364;2022-08-19T00:49:33;94777.56;;;25.00;81.63
28626;BME280;18905;42.668;23.364;2022-08-19T00:52:07;94813.13;;;25.25;81.55
28626;BME280;18905;42.668;23.364;2022-08-19T00:54:35;94739.91;;;24.83;81.59
28626;BME280;18905;42.668;23.364;2022-08-19T00:57:05;94832.22;;;25.42;82.11
28626;BME280;18905;42.668;23.364;2022-08-19T00:59:34;94815.84;;;25.28;81.59
28626;BME280;18905;42.668;23.364;2022-08-19T01:02:01;94832.59;;;25.44;82.08
28626;BME280;18905;42.668;23.364;2022-08-19T01:04:26;94832.72;;;25.07;86.11
28626;BME280;18905;42.668;23.364;2022-08-19T01:06:52;94786.59;;;24.07;91.85
28626;BME280;18905;42.668;23.364;2022-08-19T01:09:17;94757.19;;;22.95;98.01
28626;BME280;18905;42.668;23.364;2022-08-19T01:11:44;94795.78;;;23.46;99.88
28626;BME280;18905;42.668;23.364;2022-08-19T01:14:10;94762.41;;;23.81;97.77
28626;BME280;18905;42.668;23.364;2022-08-19T01:16:37;94764.50;;;23.67;96.36
28626;BME280;18905;42.668;23.364;2022-08-19T01:19:12;94767.44;;;23.93;95.97
28626;BME280;18905;42.668;23.364;2022-08-19T01:21:46;94776.78;;;24.03;92.81
28626;BME280;18905;42.668;23.364;2022-08-19T01:24:13;94839.44;;;23.99;96.14
28626;BME280;18905;42.668;23.364;2022-08-19T01:26:41;94834.13;;;23.78;94.65
28626;BME280;18905;42.668;23.364;2022-08-19T01:29:08;94741.97;;;22.77;100.00
28626;BME280;18905;42.668;23.364;2022-08-19T01:31:34;94769.50;;;22.77;100.00
28626;BME280;18905;42.668;23.364;2022-08-19T01:34:01;94791.78;;;23.00;100.00
28626;BME280;18905;42.668;23.364;2022-08-19T01:38:54;94768.59;;;22.94;100.00
28626;BME280;18905;42.668;23.364;2022-08-19T01:41:20;94828.53;;;23.85;96.15
28626;BME280;18905;42.668;23.364;2022-08-19T01:43:49;94831.16;;;24.02;93.77
28626;BME280;18905;42.668;23.364;2022-08-19T01:46:15;94786.84;;;23.76;92.90
28626;BME280;18905;42.668;23.364;2022-08-19T01:48:42;94739.69;;;23.67;89.83
28626;BME280;18905;42.668;23.364;2022-08-19T01:51:08;94770.03;;;24.07;92.00
28626;BME280;18905;42.668;23.364;2022-08-19T01:53:35;94826.50;;;24.70;89.28
28626;BME280;18905;42.668;23.364;2022-08-19T01:56:01;94747.94;;;24.11;90.59
28626;BME280;18905;42.668;23.364;2022-08-19T01:58:33;94765.47;;;23.90;93.22
28626;BME280;18905;42.668;23.364;2022-08-19T02:01:01;94741.69;;;23.19;95.63
28626;BME280;18905;42.668;23.364;2022-08-19T02:03:27;94762.00;;;23.39;96.59
28626;BME280;18905;42.668;23.364;2022-08-19T02:06:03;94833.13;;;24.02;96.80
28626;BME280;18905;42.668;23.364;2022-08-19T02:08:31;94817.13;;;23.83;96.41
28626;BME280;18905;42.668;23.364;2022-08-19T02:10:57;94842.97;;;24.40;92.09
28626;BME280;18905;42.668;23.364;2022-08-19T02:13:24;94799.44;;;24.21;91.19
28626;BME280;18905;42.668;23.364;2022-08-19T02:15:50;94787.59;;;23.80;95.68
28626;BME280;18905;42.668;23.364;2022-08-19T02:18:16;94769.91;;;23.77;96.06
28626;BME280;18905;42.668;23.364;2022-08-19T02:20:42;94771.69;;;24.01;93.57
28626;BME280;18905;42.668;23.364;2022-08-19T02:23:09;94778.16;;;24.21;92.20
28626;BME280;18905;42.668;23.364;2022-08-19T02:25:35;94802.88;;;24.32;91.93
28626;BME280;18905;42.668;23.364;2022-08-19T02:28:01;94835.84;;;24.09;93.17
28626;BME280;18905;42.668;23.364;2022-08-19T02:30:26;94815.81;;;24.01;94.82
28626;BME280;18905;42.668;23.364;2022-08-19T02:32:52;94833.94;;;24.39;93.51
28626;BME280;18905;42.668;23.364;2022-08-19T02:35:18;94821.22;;;24.45;91.61
28626;BME280;18905;42.668;23.364;2022-08-19T02:37:44;94782.75;;;24.31;90.03
28626;BME280;18905;42.668;23.364;2022-08-19T02:40:30;94809.25;;;24.25;88.98
28626;BME280;18905;42.668;23.364;2022-08-19T02:42:59;94792.97;;;23.53;95.13
28626;BME280;18905;42.668;23.364;2022-08-19T02:45:24;94786.25;;;23.03;98.54
28626;BME280;18905;42.668;23.364;2022-08-19T02:47:50;94770.41;;;22.53;100.00
28626;BME280;18905;42.668;23.364;2022-08-19T02:50:15;94775.19;;;22.28;100.00
28626;BME280;18905;42.668;23.364;2022-08-19T02:52:41;94823.16;;;22.23;100.00
28626;BME280;18905;42.668;23.364;2022-08-19T02:55:06;94851.44;;;22.13;99.15
28626;BME280;18905;42.668;23.364;2022-08-19T02:57:32;94833.34;;;22.30;89.13
28626;BME280;18905;42.668;23.364;2022-08-19T02:59:58;94849.34;;;22.73;82.07
28626;BME280;18905;42.668;23.364;2022-08-19T03:02:24;94830.81;;;22.81;85.76
28626;BME280;18905;42.668;23.364;2022-08-19T03:04:49;94843.25;;;23.03;88.19
28626;BME280;18905;42.668;23.364;2022-08-19T03:07:17;94848.16;;;23.43;86.71
28626;BME280;18905;42.668;23.364;2022-08-19T03:09:44;94824.69;;;23.24;84.09
28626;BME280;18905;42.668;23.364;2022-08-19T03:12:09;94849.28;;;23.52;86.27
28626;BME280;18905;42.668;23.364;2022-08-19T03:14:36;94847.13;;;23.74;85.67
28626;BME280;18905;42.668;23.364;2022-08-19T03:17:02;94844.25;;;23.88;85.80
28626;BME280;18905;42.668;23.364;2022-08-19T03:19:29;94816.44;;;23.72;86.59
28626;BME280;18905;42.668;23.364;2022-08-19T03:21:57;94823.09;;;23.78;87.38
28626;BME280;18905;42.668;23.364;2022-08-19T03:24:23;94815.50;;;23.89;87.03
28626;BME280;18905;42.668;23.364;2022-08-19T03:26:53;94794.75;;;23.74;88.33
28626;BME280;18905;42.668;23.364;2022-08-19T03:29:23;94841.88;;;23.93;88.50
28626;BME280;18905;42.668;23.364;2022-08-19T03:31:48;94826.41;;;24.03;87.88
28626;BME280;18905;42.668;23.364;2022-08-19T03:34:25;94830.97;;;24.20;89.71
28626;BME280;18905;42.668;23.364;2022-08-19T03:36:56;94835.53;;;24.37;90.51
28626;BME280;18905;42.668;23.364;2022-08-19T03:39:23;94832.94;;;24.19;89.95
28626;BME280;18905;42.668;23.364;2022-08-19T03:41:51;94846.22;;;23.87;94.15
28626;BME280;18905;42.668;23.364;2022-08-19T03:44:21;94841.50;;;23.88;94.92
28626;BME280;18905;42.668;23.364;2022-08-19T03:46:50;94857.06;;;24.12;93.38
28626;BME280;18905;42.668;23.364;2022-08-19T03:49:16;94843.63;;;24.17;89.73
28626;BME280;18905;42.668;23.364;2022-08-19T03:51:42;94817.38;;;24.02;90.65
28626;BME280;18905;42.668;23.364;2022-08-19T03:54:11;94858.81;;;24.36;92.59
28626;BME280;18905;42.668;23.364;2022-08-19T03:56:39;94868.94;;;24.46;91.85
28626;BME280;18905;42.668;23.364;2022-08-19T03:59:08;94863.03;;;24.44;92.59
28626;BME280;18905;42.668;23.364;2022-08-19T04:01:34;94861.31;;;24.57;90.41
28626;BME280;18905;42.668;23.364;2022-08-19T04:04:00;94858.19;;;25.18;84.75
28626;BME280;18905;42.668;23.364;2022-08-19T04:06:28;94856.91;;;26.06;78.66
28626;BME280;18905;42.668;23.364;2022-08-19T04:08:56;94871.81;;;26.97;73.90
28626;BME280;18905;42.668;23.364;2022-08-19T04:11:28;94878.34;;;27.61;68.35
28626;BME280;18905;42.668;23.364;2022-08-19T04:13:54;94875.47;;;27.10;70.71
28626;BME280;18905;42.668;23.364;2022-08-19T04:16:21;94861.94;;;26.34;74.41
28626;BME280;18905;42.668;23.364;2022-08-19T04:18:48;94891.66;;;26.07;77.70
28626;BME280;18905;42.668;23.364;2022-08-19T04:21:20;94889.66;;;25.84;80.29
28626;BME280;18905;42.668;23.364;2022-08-19T04:23:46;94875.84;;;26.07;78.02
28626;BME280;18905;42.668;23.364;2022-08-19T04:26:21;94882.72;;;27.43;70.17
28626;BME280;18905;42.668;23.364;2022-08-19T04:28:47;94887.34;;;28.49;65.43
28626;BME280;18905;42.668;23.364;2022-08-19T04:31:19;94887.94;;;28.85;61.50
28626;BME280;18905;42.668;23.364;2022-08-19T04:33:45;94878.34;;;28.74;60.95
28626;BME280;18905;42.668;23.364;2022-08-19T04:36:19;94868.31;;;28.64;60.12
28626;BME280;18905;42.668;23.364;2022-08-19T04:38:46;94880.56;;;28.50;60.36
28626;BME280;18905;42.668;23.364;2022-08-19T04:41:20;94886.63;;;27.81;63.48
28626;BME280;18905;42.668;23.364;2022-08-19T04:44:25;94843.47;;;26.27;70.65
28626;BME280;18905;42.668;23.364;2022-08-19T04:46:58;94764.06;;;25.06;73.69
28626;BME280;18905;42.668;23.364;2022-08-19T04:49:25;94791.09;;;23.91;83.58
28626;BME280;18905;42.668;23.364;2022-08-19T04:51:52;94825.56;;;24.09;84.98
28626;BME280;18905;42.668;23.364;2022-08-19T04:54:24;94892.53;;;24.50;86.99
28626;BME280;18905;42.668;23.364;2022-08-19T04:56:53;94767.28;;;24.07;84.68
28626;BME280;18905;42.668;23.364;2022-08-19T04:59:39;94792.16;;;24.71;79.89
28626;BME280;18905;42.668;23.364;2022-08-19T05:02:17;94769.34;;;24.67;79.31
28626;BME280;18905;42.668;23.364;2022-08-19T05:05:06;94762.69;;;25.17;71.83
28626;BME280;18905;42.668;23.364;2022-08-19T05:07:53;94793.03;;;25.74;69.53
28626;BME280;18905;42.668;23.364;2022-08-19T05:16:26;94812.53;;;26.32;70.31
28626;BME280;18905;42.668;23.364;2022-08-19T05:19:21;94888.19;;;27.07;67.63
28626;BME280;18905;42.668;23.364;2022-08-19T05:22:10;94876.09;;;27.21;68.85
28626;BME280;18905;42.668;23.364;2022-08-19T05:25:09;94892.56;;;27.79;65.69
28626;BME280;18905;42.668;23.364;2022-08-19T05:27:37;94896.28;;;28.08;60.58
28626;BME280;18905;42.668;23.364;2022-08-19T05:30:03;94892.28;;;28.25;59.63
28626;BME280;18905;42.668;23.364;2022-08-19T05:32:29;94841.81;;;28.14;56.39
28626;BME280;18905;42.668;23.364;2022-08-19T05:34:54;94823.81;;;28.19;60.61
28626;BME280;18905;42.668;23.364;2022-08-19T05:37:20;94835.22;;;28.41;56.30
28626;BME280;18905;42.668;23.364;2022-08-19T05:39:46;94895.53;;;28.97;57.08
28626;BME280;18905;42.668;23.364;2022-08-19T05:42:12;94839.81;;;27.99;57.74
28626;BME280;18905;42.668;23.364;2022-08-19T05:44:41;94860.34;;;28.33;60.31
28626;BME280;18905;42.668;23.364;2022-08-19T05:47:12;94832.84;;;28.23;59.90
28626;BME280;18905;42.668;23.364;2022-08-19T05:49:39;94895.84;;;28.87;55.37
28626;BME280;18905;42.668;23.364;2022-08-19T05:52:06;94898.94;;;29.05;55.29
28626;BME280;18905;42.668;23.364;2022-08-19T05:54:32;94876.16;;;29.10;55.28
28626;BME280;18905;42.668;23.364;2022-08-19T05:56:58;94879.44;;;29.33;56.08
28626;BME280;18905;42.668;23.364;2022-08-19T05:59:25;94830.84;;;28.23;55.88
28626;BME280;18905;42.668;23.364;2022-08-19T06:01:51;94886.31;;;28.11;60.30
28626;BME280;18905;42.668;23.364;2022-08-19T06:04:20;94860.81;;;27.84;60.00
28626;BME280;18905;42.668;23.364;2022-08-19T06:06:47;94843.81;;;27.46;59.75
28626;BME280;18905;42.668;23.364;2022-08-19T06:09:13;94902.59;;;27.93;61.66
28626;BME280;18905;42.668;23.364;2022-08-19T06:11:47;94894.88;;;27.84;60.50
28626;BME280;18905;42.668;23.364;2022-08-19T06:14:20;94902.50;;;27.96;60.87
28626;BME280;18905;42.668;23.364;2022-08-19T06:16:46;94855.97;;;27.88;59.06
28626;BME280;18905;42.668;23.364;2022-08-19T06:19:15;94856.69;;;28.36;61.19
28626;BME280;18905;42.668;23.364;2022-08-19T06:21:44;94868.19;;;28.96;55.79
28626;BME280;18905;42.668;23.364;2022-08-19T06:24:12;94910.09;;;29.58;56.31
28626;BME280;18905;42.668;23.364;2022-08-19T06:26:40;94886.78;;;29.40;55.55
28626;BME280;18905;42.668;23.364;2022-08-19T06:29:09;94906.94;;;29.03;55.10
28626;BME280;18905;42.668;23.364;2022-08-19T06:31:35;94855.31;;;28.28;55.88
28626;BME280;18905;42.668;23.364;2022-08-19T06:34:03;94812.06;;;27.99;58.78
28626;BME280;18905;42.668;23.364;2022-08-19T06:36:32;94887.81;;;28.60;58.54
28626;BME280;18905;42.668;23.364;2022-08-19T06:39:10;94854.34;;;28.19;59.73
28626;BME280;18905;42.668;23.364;2022-08-19T06:41:38;94885.44;;;28.75;58.92
28626;BME280;18905;42.668;23.364;2022-08-19T06:44:04;94876.38;;;29.15;58.25
28626;BME280;18905;42.668;23.364;2022-08-19T06:46:30;94902.16;;;29.03;56.61
28626;BME280;18905;42.668;23.364;2022-08-19T06:48:56;94903.41;;;28.70;59.04
28626;BME280;18905;42.668;23.364;2022-08-19T06:51:22;94853.81;;;28.56;57.53
28626;BME280;18905;42.668;23.364;2022-08-19T06:53:50;94863.94;;;28.02;61.07
28626;BME280;18905;42.668;23.364;2022-08-19T06:56:19;94902.91;;;28.75;59.75
28626;BME280;18905;42.668;23.364;2022-08-19T06:58:46;94907.44;;;29.14;58.59
28626;BME280;18905;42.668;23.364;2022-08-19T07:01:12;94868.75;;;29.32;57.22
28626;BME280;18905;42.668;23.364;2022-08-19T07:03:38;94903.31;;;29.72;55.63
28626;BME280;18905;42.668;23.364;2022-08-19T07:06:06;94911.47;;;29.91;55.45
28626;BME280;18905;42.668;23.364;2022-08-19T07:08:33;94913.13;;;30.14;55.12
28626;BME280;18905;42.668;23.364;2022-08-19T07:11:00;94886.63;;;30.22;53.60
28626;BME280;18905;42.668;23.364;2022-08-19T07:13:25;94926.41;;;30.22;54.26
28626;BME280;18905;42.668;23.364;2022-08-19T07:15:51;94869.16;;;30.21;52.58
28626;BME280;18905;42.668;23.364;2022-08-19T07:18:18;94876.63;;;30.58;50.56
28626;BME280;18905;42.668;23.364;2022-08-19T07:20:45;94902.19;;;30.32;50.16
28626;BME280;18905;42.668;23.364;2022-08-19T07:23:12;94915.00;;;30.29;51.43
28626;BME280;18905;42.668;23.364;2022-08-19T07:25:38;94915.34;;;30.44;50.75
28626;BME280;18905;42.668;23.364;2022-08-19T07:28:03;94889.06;;;30.07;53.08
28626;BME280;18905;42.668;23.364;2022-08-19T07:30:29;94889.72;;;30.36;52.04
28626;BME280;18905;42.668;23.364;2022-08-19T07:32:55;94882.97;;;30.12;52.52
28626;BME280;18905;42.668;23.364;2022-08-19T07:35:21;94899.19;;;30.39;49.57
28626;BME280;18905;42.668;23.364;2022-08-19T07:37:47;94851.88;;;30.14;52.28
28626;BME280;18905;42.668;23.364;2022-08-19T07:40:12;94875.19;;;30.54;48.79
28626;BME280;18905;42.668;23.364;2022-08-19T07:42:38;94867.66;;;30.42;49.98
28626;BME280;18905;42.668;23.364;2022-08-19T07:45:05;94876.63;;;30.71;47.95
28626;BME280;18905;42.668;23.364;2022-08-19T07:47:31;94858.81;;;30.90;51.16
28626;BME280;18905;42.668;23.364;2022-08-19T07:49:57;94832.09;;;31.01;48.42
28626;BME280;18905;42.668;23.364;2022-08-19T07:52:22;94912.97;;;31.44;48.60
28626;BME280;18905;42.668;23.364;2022-08-19T07:54:48;94909.94;;;31.51;46.59
28626;BME280;18905;42.668;23.364;2022-08-19T07:57:15;94908.69;;;31.52;47.56
28626;BME280;18905;42.668;23.364;2022-08-19T07:59:41;94910.63;;;31.64;46.79
28626;BME280;18905;42.668;23.364;2022-08-19T08:02:08;94900.22;;;31.86;46.17
28626;BME280;18905;42.668;23.364;2022-08-19T08:04:33;94888.91;;;31.59;46.89
28626;BME280;18905;42.668;23.364;2022-08-19T08:07:17;94904.31;;;32.03;46.51
28626;BME280;18905;42.668;23.364;2022-08-19T08:10:02;94873.63;;;32.12;46.17
28626;BME280;18905;42.668;23.364;2022-08-19T08:12:31;94906.53;;;32.57;44.14
28626;BME280;18905;42.668;23.364;2022-08-19T08:15:00;94894.53;;;32.38;44.15
28626;BME280;18905;42.668;23.364;2022-08-19T08:17:28;94901.91;;;32.14;46.20
28626;BME280;18905;42.668;23.364;2022-08-19T08:19:55;94895.03;;;32.55;43.58
28626;BME280;18905;42.668;23.364;2022-08-19T08:22:22;94890.44;;;33.15;44.51
28626;BME280;18905;42.668;23.364;2022-08-19T08:25:10;94859.19;;;33.34;42.04
28626;BME280;18905;42.668;23.364;2022-08-19T08:27:41;94866.25;;;33.71;41.79
28626;BME280;18905;42.668;23.364;2022-08-19T08:30:13;94865.38;;;33.56;41.75
28626;BME280;18905;42.668;23.364;2022-08-19T08:32:40;94885.00;;;33.02;42.74
28626;BME280;18905;42.668;23.364;2022-08-19T08:35:08;94848.63;;;31.69;44.08
28626;BME280;18905;42.668;23.364;2022-08-19T08:37:34;94871.13;;;32.63;44.10
28626;BME280;18905;42.668;23.364;2022-08-19T08:40:05;94835.72;;;33.23;43.15
28626;BME280;18905;42.668;23.364;2022-08-19T08:42:36;94834.00;;;33.25;40.71
28626;BME280;18905;42.668;23.364;2022-08-19T08:45:14;94853.63;;;32.80;41.76
28626;BME280;18905;42.668;23.364;2022-08-19T08:47:44;94800.47;;;32.44;42.41
28626;BME280;18905;42.668;23.364;2022-08-19T08:50:43;94870.41;;;32.80;41.89
28626;BME280;18905;42.668;23.364;2022-08-19T08:53:13;94815.25;;;32.90;40.87
28626;BME280;18905;42.668;23.364;2022-08-19T08:55:40;94827.06;;;32.85;39.52
28626;BME280;18905;42.668;23.364;2022-08-19T08:58:12;94834.94;;;32.50;39.48
28626;BME280;18905;42.668;23.364;2022-08-19T09:00:47;94806.34;;;32.28;40.36
28626;BME280;18905;42.668;23.364;2022-08-19T09:03:20;94825.28;;;32.33;41.09
28626;BME280;18905;42.668;23.364;2022-08-19T09:06:03;94861.94;;;32.53;40.38
28626;BME280;18905;42.668;23.364;2022-08-19T09:09:01;94856.38;;;32.71;40.62
28626;BME280;18905;42.668;23.364;2022-08-19T09:11:50;94852.53;;;33.05;39.23
28626;BME280;18905;42.668;23.364;2022-08-19T09:16:53;94841.06;;;32.85;38.35
28626;BME280;18905;42.668;23.364;2022-08-19T09:19:18;94834.63;;;33.29;37.57
28626;BME280;18905;42.668;23.364;2022-08-19T09:21:44;94829.91;;;33.53;37.08
28626;BME280;18905;42.668;23.364;2022-08-19T09:24:10;94833.31;;;33.57;36.77
28626;BME280;18905;42.668;23.364;2022-08-19T09:26:36;94780.28;;;32.85;36.60
28626;BME280;18905;42.668;23.364;2022-08-19T09:29:02;94838.44;;;33.68;36.10
28626;BME280;18905;42.668;23.364;2022-08-19T09:31:30;94837.47;;;34.45;35.62
28626;BME280;18905;42.668;23.364;2022-08-19T09:33:58;94817.66;;;34.48;34.39
28626;BME280;18905;42.668;23.364;2022-08-19T09:36:26;94821.22;;;34.72;33.76
28626;BME280;18905;42.668;23.364;2022-08-19T09:38:54;94821.53;;;35.12;31.28
28626;BME280;18905;42.668;23.364;2022-08-19T09:41:23;94779.00;;;34.52;31.43
28626;BME280;18905;42.668;23.364;2022-08-19T09:43:51;94784.44;;;34.79;31.21
28626;BME280;18905;42.668;23.364;2022-08-19T09:46:22;94828.50;;;34.55;31.06
28626;BME280;18905;42.668;23.364;2022-08-19T09:48:48;94766.34;;;33.86;32.38
28626;BME280;18905;42.668;23.364;2022-08-19T09:51:23;94817.19;;;33.43;33.51
28626;BME280;18905;42.668;23.364;2022-08-19T09:53:50;94829.06;;;33.71;33.15
28626;BME280;18905;42.668;23.364;2022-08-19T09:56:18;94825.66;;;34.08;32.38
28626;BME280;18905;42.668;23.364;2022-08-19T09:58:44;94824.22;;;34.45;32.02
28626;BME280;18905;42.668;23.364;2022-08-19T10:01:16;94817.75;;;34.77;31.32
28626;BME280;18905;42.668;23.364;2022-08-19T10:03:42;94793.59;;;34.80;30.66
28626;BME280;18905;42.668;23.364;2022-08-19T10:06:07;94807.19;;;34.96;30.62
28626;BME280;18905;42.668;23.364;2022-08-19T10:08:36;94762.03;;;34.70;30.37
28626;BME280;18905;42.668;23.364;2022-08-19T10:11:03;94750.69;;;35.03;29.70
28626;BME280;18905;42.668;23.364;2022-08-19T10:13:30;94779.44;;;35.56;30.56
28626;BME280;18905;42.668;23.364;2022-08-19T10:16:06;94749.16;;;35.46;30.29
28626;BME280;18905;42.668;23.364;2022-08-19T10:18:33;94804.25;;;36.21;30.27
28626;BME280;18905;42.668;23.364;2022-08-19T10:21:07;94800.25;;;37.08;29.36
28626;BME280;18905;42.668;23.364;2022-08-19T10:23:35;94753.06;;;38.16;27.28
28626;BME280;18905;42.668;23.364;2022-08-19T10:26:01;94798.19;;;37.54;28.11
28626;BME280;18905;42.668;23.364;2022-08-19T10:28:28;94756.94;;;37.00;28.88
28626;BME280;18905;42.668;23.364;2022-08-19T10:30:53;94746.97;;;36.39;29.60
28626;BME280;18905;42.668;23.364;2022-08-19T10:33:19;94755.91;;;36.37;29.77
28626;BME280;18905;42.668;23.364;2022-08-19T10:35:44;94685.97;;;36.25;29.16
28626;BME280;18905;42.668;23.364;2022-08-19T10:38:12;94781.00;;;36.61;29.68
28626;BME280;18905;42.668;23.364;2022-08-19T10:40:37;94720.19;;;36.83;28.77
28626;BME280;18905;42.668;23.364;2022-08-19T10:43:03;94714.97;;;37.02;28.64
28626;BME280;18905;42.668;23.364;2022-08-19T10:45:28;94694.06;;;36.37;29.39
28626;BME280;18905;42.668;23.364;2022-08-19T10:47:53;94781.06;;;37.32;28.32
28626;BME280;18905;42.668;23.364;2022-08-19T10:50:19;94712.97;;;36.37;29.25
28626;BME280;18905;42.668;23.364;2022-08-19T10:53:04;94755.00;;;36.46;30.17
28626;BME280;18905;42.668;23.364;2022-08-19T10:55:30;94743.16;;;35.09;30.72
28626;BME280;18905;42.668;23.364;2022-08-19T10:58:16;94749.94;;;35.02;30.93
28626;BME280;18905;42.668;23.364;2022-08-19T11:00:43;94774.22;;;35.64;30.30
28626;BME280;18905;42.668;23.364;2022-08-19T11:03:15;94738.31;;;34.42;31.48
28626;BME280;18905;42.668;23.364;2022-08-19T11:05:41;94754.19;;;34.60;31.57
28626;BME280;18905;42.668;23.364;2022-08-19T11:08:07;94740.72;;;34.49;32.49
28626;BME280;18905;42.668;23.364;2022-08-19T11:10:36;94711.56;;;34.70;32.08
28626;BME280;18905;42.668;23.364;2022-08-19T11:13:02;94770.22;;;34.83;32.63
28626;BME280;18905;42.668;23.364;2022-08-19T11:15:28;94737.94;;;35.31;31.09
28626;BME280;18905;42.668;23.364;2022-08-19T11:17:55;94743.44;;;35.55;31.58
28626;BME280;18905;42.668;23.364;2022-08-19T11:20:21;94743.72;;;35.57;31.96
28626;BME280;18905;42.668;23.364;2022-08-19T11:22:46;94732.03;;;35.93;30.99
28626;BME280;18905;42.668;23.364;2022-08-19T11:25:12;94713.47;;;35.81;30.34
28626;BME280;18905;42.668;23.364;2022-08-19T11:27:41;94726.88;;;35.57;30.44
28626;BME280;18905;42.668;23.364;2022-08-19T11:30:09;94702.47;;;35.48;30.79
28626;BME280;18905;42.668;23.364;2022-08-19T11:32:35;94737.28;;;35.36;30.98
28626;BME280;18905;42.668;23.364;2022-08-19T11:35:00;94713.06;;;35.39;30.11
28626;BME280;18905;42.668;23.364;2022-08-19T11:37:26;94710.44;;;34.91;31.27
28626;BME280;18905;42.668;23.364;2022-08-19T11:39:52;94707.69;;;34.68;31.36
28626;BME280;18905;42.668;23.364;2022-08-19T11:42:17;94669.13;;;34.63;31.56
28626;BME280;18905;42.668;23.364;2022-08-19T11:45:02;94723.84;;;34.73;31.85
28626;BME280;18905;42.668;23.364;2022-08-19T11:47:29;94670.81;;;34.08;31.92
28626;BME280;18905;42.668;23.364;2022-08-19T11:49:55;94730.06;;;34.91;31.48
28626;BME280;18905;42.668;23.364;2022-08-19T11:52:21;94685.75;;;34.66;31.50
28626;BME280;18905;42.668;23.364;2022-08-19T11:54:46;94672.16;;;34.50;32.14
28626;BME280;18905;42.668;23.364;2022-08-19T11:57:12;94730.97;;;35.27;31.41
28626;BME280;18905;42.668;23.364;2022-08-19T11:59:39;94706.00;;;35.28;30.73
28626;BME280;18905;42.668;23.364;2022-08-19T12:02:05;94721.34;;;35.77;30.92
28626;BME280;18905;42.668;23.364;2022-08-19T12:04:30;94695.13;;;35.51;30.85
28626;BME280;18905;42.668;23.364;2022-08-19T12:06:56;94649.47;;;35.21;31.13
28626;BME280;18905;42.668;23.364;2022-08-19T12:09:21;94641.50;;;35.49;30.54
28626;BME280;18905;42.668;23.364;2022-08-19T12:11:47;94655.19;;;35.61;30.99
28626;BME280;18905;42.668;23.364;2022-08-19T12:14:13;94633.88;;;35.69;30.58
28626;BME280;18905;42.668;23.364;2022-08-19T12:16:39;94703.06;;;36.21;30.45
28626;BME280;18905;42.668;23.364;2022-08-19T12:19:06;94630.53;;;35.51;30.96
28626;BME280;18905;42.668;23.364;2022-08-19T12:21:34;94689.56;;;35.71;30.94
28626;BME280;18905;42.668;23.364;2022-08-19T12:24:01;94643.41;;;35.57;31.60
28626;BME280;18905;42.668;23.364;2022-08-19T12:26:28;94628.63;;;35.77;31.19
28626;BME280;18905;42.668;23.364;2022-08-19T12:28:54;94638.97;;;35.85;31.35
28626;BME280;18905;42.668;23.364;2022-08-19T12:31:20;94647.34;;;35.80;31.61
28626;BME280;18905;42.668;23.364;2022-08-19T12:33:49;94665.38;;;35.73;31.01
28626;BME280;18905;42.668;23.364;2022-08-19T12:36:15;94670.59;;;35.66;31.29
28626;BME280;18905;42.668;23.364;2022-08-19T12:38:42;94646.19;;;35.08;31.45
28626;BME280;18905;42.668;23.364;2022-08-19T12:41:12;94643.00;;;35.15;31.63
28626;BME280;18905;42.668;23.364;2022-08-19T12:43:37;94664.28;;;35.07;31.73
28626;BME280;18905;42.668;23.364;2022-08-19T12:46:04;94666.16;;;34.81;31.76
28626;BME280;18905;42.668;23.364;2022-08-19T12:48:31;94649.03;;;34.79;31.75
28626;BME280;18905;42.668;23.364;2022-08-19T12:50:57;94630.25;;;34.70;32.76
28626;BME280;18905;42.668;23.364;2022-08-19T12:53:22;94640.91;;;34.81;31.98
28626;BME280;18905;42.668;23.364;2022-08-19T12:55:55;94642.53;;;34.87;32.14
28626;BME280;18905;42.668;23.364;2022-08-19T12:58:21;94608.28;;;34.98;31.76
28626;BME280;18905;42.668;23.364;2022-08-19T13:00:47;94600.38;;;34.82;31.78
28626;BME280;18905;42.668;23.364;2022-08-19T13:03:12;94640.44;;;35.46;32.24
28626;BME280;18905;42.668;23.364;2022-08-19T13:05:38;94655.53;;;35.83;31.36
28626;BME280;18905;42.668;23.364;2022-08-19T13:08:03;94611.53;;;35.25;32.02